< Typhoon 197111 1971 Season Typhoon 197113 >
Typhoon 197112 (HARRIET)
General InformationTrack Information on Google Maps || Disaster Info.ResourceGoogle EarthGE AnimationAtom FeedGeoJSON
Detalied Best Track (Time Zone = UTC)
Year Month Day Hour Lat. Long. Pressure (hPa) Wind (kt) Class Image Chart
1971 6 30 00 7.5 136.3 1008 0 2 -- Chart
1971 6 30 06 7.8 135.3 1007 0 2 -- Chart
1971 6 30 12 8.3 134.3 1007 0 2 -- Chart
1971 6 30 18 8.7 133.4 1006 0 2 -- Chart
1971 7 1 00 9.2 132.7 1006 0 2 -- Chart
1971 7 1 06 9.5 132.0 1002 0 2 -- Chart
1971 7 1 12 9.8 131.2 1002 0 2 -- Chart
1971 7 1 18 10.0 130.4 1000 0 2 -- Chart
1971 7 2 00 10.2 129.6 998 0 2 -- Chart
1971 7 2 06 10.3 128.7 995 0 9 -- Chart
1971 7 2 12 10.5 128.0 990 0 9 -- Chart
1971 7 2 18 10.6 127.0 995 0 9 -- Chart
1971 7 3 00 11.0 126.0 990 0 9 -- Chart
1971 7 3 06 11.8 124.0 990 0 9 -- Chart
1971 7 3 12 12.5 122.5 985 0 9 -- Chart
1971 7 3 18 12.9 121.0 985 0 9 -- Chart
1971 7 4 00 13.5 119.7 985 0 9 -- Chart
1971 7 4 06 14.4 118.1 980 0 9 -- Chart
1971 7 4 12 14.9 116.3 975 0 9 -- Chart
1971 7 4 18 15.2 114.7 970 0 9 -- Chart
1971 7 5 00 15.5 113.4 955 0 9 -- Chart
1971 7 5 06 15.9 112.2 940 0 9 -- Chart
1971 7 5 12 16.2 111.1 925 0 9 -- Chart
1971 7 5 18 16.5 109.5 925 0 9 -- Chart
1971 7 6 00 16.7 108.8 935 0 9 -- Chart
1971 7 6 06 16.8 107.8 945 0 9 -- Chart
1971 7 6 12 16.9 107.2 960 0 9 -- Chart
1971 7 6 18 17.0 106.7 980 0 9 -- Chart
1971 7 7 00 17.2 106.3 990 0 9 -- Chart
1971 7 7 06 17.4 105.3 994 0 9 -- Chart
1971 7 7 12 17.8 103.8 996 0 9 -- Chart
1971 7 7 18 18.0 102.8 998 0 2 -- Chart
1971 7 8 00 18.0 102.0 1000 0 2 -- Chart
Japan Meteorological Agency Best Track Data | Correction Date : 1989-06-01
< Typhoon 197111 1971 Season Typhoon 197113 >

Help